Time;durP1;ratioP1;P1;durP2;ratioP2;P2;SDS_P1;SDS_P2;PMS_P1;PMS_P2;Temp;Humidity;BMP_temperature;BMP_pressure;BME280_temperature;BME280_humidity;BME280_pressure;Samples;Min_cycle;Max_cycle;Signal;HPM_P1;HPM_P2
2022/09/12 00:02:24;;;;;;;7.00;4.80;;;23.70;66.30;;;;;;221286;1265;24198;-47
2022/09/12 00:07:28;;;;;;;7.90;4.70;;;23.70;66.30;;;;;;221346;1265;24201;-47
2022/09/12 00:12:32;;;;;;;8.20;4.80;;;23.70;66.60;;;;;;221170;1265;22559;-47
2022/09/12 00:17:37;;;;;;;6.80;4.80;;;23.70;66.40;;;;;;221503;1265;22545;-47
2022/09/12 00:22:40;;;;;;;10.00;4.70;;;23.60;66.40;;;;;;221297;1265;25222;-47
2022/09/12 00:27:44;;;;;;;7.60;4.30;;;23.70;66.30;;;;;;221098;1265;25244;-48
2022/09/12 00:32:49;;;;;;;8.40;4.70;;;23.70;66.50;;;;;;220803;1265;24243;-48
2022/09/12 00:37:52;;;;;;;7.90;4.70;;;23.60;66.60;;;;;;221306;1265;24262;-47
2022/09/12 00:42:56;;;;;;;8.40;4.70;;;23.60;66.40;;;;;;220945;1265;22538;-51
2022/09/12 00:48:03;;;;;;;6.50;4.30;;;23.60;66.40;;;;;;221093;1265;24264;-48
2022/09/12 00:53:08;;;;;;;5.70;4.30;;;23.60;66.70;;;;;;220971;1265;22705;-47
2022/09/12 00:58:17;;;;;;;6.10;4.10;;;23.60;66.30;;;;;;221330;1265;25222;-47
2022/09/12 01:03:22;;;;;;;7.00;4.30;;;23.60;66.30;;;;;;221307;1265;24257;-51
2022/09/12 01:08:27;;;;;;;6.90;4.00;;;23.60;66.40;;;;;;220975;1265;22563;-49
2022/09/12 01:13:34;;;;;;;6.10;4.20;;;23.60;66.40;;;;;;221301;1265;22761;-48
2022/09/12 01:18:41;;;;;;;6.40;4.40;;;23.60;66.50;;;;;;220243;1265;1542528;-47
2022/09/12 01:24:06;;;;;;;7.40;4.10;;;23.60;66.50;;;;;;221432;1265;24032;-49
2022/09/12 01:29:29;;;;;;;7.00;4.20;;;23.60;66.80;;;;;;221159;1265;22520;-49
2022/09/12 01:34:35;;;;;;;7.00;4.60;;;23.60;66.30;;;;;;220878;1265;22551;-49
2022/09/12 01:40:00;;;;;;;6.10;4.20;;;23.50;66.30;;;;;;221073;1265;25448;-48
2022/09/12 01:45:52;;;;;;;4.80;3.80;;;23.60;66.30;;;;;;221073;1265;24361;-48
2022/09/12 01:50:56;;;;;;;6.20;4.20;;;23.50;66.40;;;;;;221023;1265;24208;-49
2022/09/12 01:56:21;;;;;;;5.70;4.30;;;23.50;66.40;;;;;;221144;1265;23894;-46
2022/09/12 02:01:32;;;;;;;5.10;3.50;;;23.50;66.70;;;;;;220811;1265;23156;-51
2022/09/12 02:06:46;;;;;;;5.50;4.20;;;23.50;66.50;;;;;;221114;1265;22726;-51
2022/09/12 02:11:55;;;;;;;5.70;3.80;;;23.50;66.30;;;;;;221086;1265;22905;-51
2022/09/12 02:17:06;;;;;;;5.40;3.80;;;23.50;66.30;;;;;;221300;1265;24370;-49
2022/09/12 02:22:15;;;;;;;5.70;3.80;;;23.50;66.40;;;;;;221188;1265;24212;-49
2022/09/12 02:27:19;;;;;;;5.60;3.50;;;23.50;66.40;;;;;;221216;1265;22587;-51
2022/09/12 02:32:29;;;;;;;6.20;4.20;;;23.50;66.40;;;;;;221172;1265;22644;-50
2022/09/12 02:37:36;;;;;;;6.60;3.80;;;23.50;66.40;;;;;;221159;1265;22569;-47
2022/09/12 02:42:40;;;;;;;6.40;3.80;;;23.50;66.50;;;;;;221300;1265;22776;-48
2022/09/12 02:47:50;;;;;;;5.10;3.70;;;23.50;66.40;;;;;;221120;1265;25490;-48
2022/09/12 02:52:58;;;;;;;5.50;3.90;;;23.40;66.40;;;;;;221096;1265;24277;-48
2022/09/12 02:58:05;;;;;;;5.50;3.90;;;23.50;66.50;;;;;;221206;1263;22544;-48
2022/09/12 03:03:24;;;;;;;5.30;3.70;;;23.40;66.50;;;;;;221116;1265;22537;-49
2022/09/12 03:09:19;;;;;;;5.20;3.70;;;23.40;66.40;;;;;;221449;1265;24412;-48
2022/09/12 03:14:46;;;;;;;4.70;3.30;;;23.40;66.50;;;;;;220066;1271;24377;-47
2022/09/12 03:20:01;;;;;;;8.10;3.80;;;23.40;66.40;;;;;;220948;1265;24285;-51
2022/09/12 03:25:19;;;;;;;5.90;3.20;;;23.40;67.00;;;;;;221214;1265;22714;-50
2022/09/12 03:30:24;;;;;;;6.80;3.60;;;23.40;66.50;;;;;;221164;1265;23917;-48
2022/09/12 03:35:28;;;;;;;5.00;3.60;;;23.40;66.70;;;;;;223283;1265;22541;-48
2022/09/12 03:40:34;;;;;;;4.80;3.20;;;23.40;66.30;;;;;;223023;1265;25411;-48
2022/09/12 03:45:37;;;;;;;4.70;3.40;;;23.40;66.20;;;;;;222378;1265;22533;-47
2022/09/12 03:50:41;;;;;;;4.30;3.30;;;23.40;66.20;;;;;;221099;1265;25412;-50
2022/09/12 03:55:45;;;;;;;4.90;3.40;;;23.40;66.60;;;;;;221293;1262;24198;-48
2022/09/12 04:00:48;;;;;;;5.30;3.20;;;23.40;66.10;;;;;;221078;1262;25293;-47
2022/09/12 04:05:52;;;;;;;6.00;3.10;;;23.40;66.60;;;;;;221482;1265;24205;-47
2022/09/12 04:11:05;;;;;;;6.00;3.40;;;23.40;66.80;;;;;;221246;1265;22558;-46
2022/09/12 04:16:09;;;;;;;3.90;2.90;;;23.40;66.70;;;;;;221088;1265;23709;-47
2022/09/12 04:21:17;;;;;;;4.40;3.20;;;23.40;66.90;;;;;;220759;1265;25349;-47
2022/09/12 04:26:21;;;;;;;6.30;3.10;;;23.40;67.20;;;;;;220918;1265;24908;-51
2022/09/12 04:31:26;;;;;;;4.50;3.30;;;23.30;66.90;;;;;;220764;1265;24839;-48
2022/09/12 04:36:29;;;;;;;6.10;3.40;;;23.40;67.10;;;;;;221178;1265;22535;-49
2022/09/12 04:41:35;;;;;;;6.70;3.00;;;23.40;66.60;;;;;;220633;1265;23940;-47
2022/09/12 04:46:43;;;;;;;7.20;3.10;;;23.30;66.60;;;;;;220890;1265;22566;-49
2022/09/12 04:51:47;;;;;;;4.90;3.00;;;23.30;66.50;;;;;;221219;1264;24284;-47
2022/09/12 04:56:53;;;;;;;4.70;3.00;;;23.30;66.50;;;;;;221096;1265;22530;-48
2022/09/12 05:01:57;;;;;;;6.40;3.30;;;23.30;66.50;;;;;;222151;1264;25442;-46
2022/09/12 05:07:01;;;;;;;4.50;3.30;;;23.30;66.50;;;;;;221336;1265;23268;-48
2022/09/12 05:12:06;;;;;;;4.50;3.00;;;23.30;66.70;;;;;;221189;1265;24490;-49
2022/09/12 05:17:12;;;;;;;5.70;3.00;;;23.30;66.60;;;;;;221199;1263;23041;-47
2022/09/12 05:22:15;;;;;;;5.30;3.00;;;23.30;66.70;;;;;;221349;1265;23914;-47
2022/09/12 05:27:19;;;;;;;5.80;3.20;;;23.30;67.10;;;;;;221006;1265;24305;-48
2022/09/12 05:32:25;;;;;;;5.20;2.60;;;23.30;66.90;;;;;;221152;1265;24299;-49
2022/09/12 05:37:29;;;;;;;4.30;2.90;;;23.30;67.00;;;;;;221151;1265;24357;-47
2022/09/12 05:42:33;;;;;;;4.30;2.90;;;23.30;67.10;;;;;;221114;1265;22521;-48
2022/09/12 05:47:36;;;;;;;12.70;4.30;;;23.30;67.20;;;;;;220967;1265;22538;-50
2022/09/12 05:52:41;;;;;;;11.30;3.10;;;23.40;69.00;;;;;;221182;1265;22617;-58
2022/09/12 05:57:48;;;;;;;11.70;3.70;;;23.40;69.30;;;;;;220948;1265;25222;-48
2022/09/12 06:02:55;;;;;;;7.90;3.40;;;23.40;69.40;;;;;;221093;1265;26765;-49
2022/09/12 06:07:58;;;;;;;12.60;3.60;;;23.50;70.20;;;;;;221124;1265;24379;-47
2022/09/12 06:13:03;;;;;;;7.90;3.40;;;23.50;69.60;;;;;;221058;1265;22616;-46
2022/09/12 06:18:06;;;;;;;12.60;3.20;;;23.50;70.00;;;;;;221106;1265;22525;-47
2022/09/12 06:23:10;;;;;;;22.00;4.10;;;23.50;69.80;;;;;;221099;1265;24244;-49
2022/09/12 06:28:14;;;;;;;20.50;4.60;;;23.50;69.70;;;;;;221184;1265;22532;-47
2022/09/12 06:33:18;;;;;;;19.10;3.90;;;23.60;69.50;;;;;;221065;1265;23021;-46
2022/09/12 06:38:21;;;;;;;23.40;3.50;;;23.60;69.20;;;;;;221216;1265;23901;-49
2022/09/12 06:43:27;;;;;;;23.90;5.10;;;23.60;68.40;;;;;;220550;1265;24694;-50
2022/09/12 06:48:31;;;;;;;12.00;3.20;;;23.50;68.40;;;;;;220489;1265;24225;-48
2022/09/12 06:53:35;;;;;;;16.30;3.40;;;23.50;67.30;;;;;;221115;1265;24316;-49
2022/09/12 06:58:40;;;;;;;10.60;3.70;;;23.40;67.00;;;;;;220967;1265;23264;-47
2022/09/12 07:03:53;;;;;;;11.90;3.30;;;23.40;65.50;;;;;;220629;1265;25226;-47
2022/09/12 07:09:01;;;;;;;19.70;3.80;;;23.40;65.30;;;;;;221044;1265;22699;-49
2022/09/12 07:14:07;;;;;;;8.20;3.00;;;23.40;65.40;;;;;;221059;1264;24371;-46
2022/09/12 07:19:10;;;;;;;5.80;2.70;;;23.50;65.90;;;;;;220654;1265;22545;-48
2022/09/12 07:24:14;;;;;;;5.00;2.90;;;23.50;65.80;;;;;;221037;1265;25210;-48
2022/09/12 07:29:18;;;;;;;7.60;2.70;;;23.50;65.50;;;;;;221051;1265;22541;-48
2022/09/12 07:34:41;;;;;;;9.30;3.10;;;23.50;65.40;;;;;;221003;1265;22551;-48
2022/09/12 07:39:45;;;;;;;4.10;2.60;;;23.40;65.20;;;;;;221176;1265;25420;-49
2022/09/12 07:44:52;;;;;;;5.00;2.80;;;23.50;65.40;;;;;;221169;1265;25084;-49
2022/09/12 07:49:57;;;;;;;9.70;3.40;;;23.50;65.00;;;;;;221346;1265;24161;-48
2022/09/12 07:55:01;;;;;;;4.30;2.60;;;23.50;64.70;;;;;;221291;1265;23958;-45
2022/09/12 08:00:09;;;;;;;7.10;2.30;;;23.50;64.10;;;;;;220883;1265;22676;-51
2022/09/12 08:05:16;;;;;;;7.10;3.10;;;23.50;63.70;;;;;;221077;1265;23966;-45
2022/09/12 08:10:21;;;;;;;5.50;2.30;;;23.50;62.90;;;;;;221298;1265;24895;-47
2022/09/12 08:15:24;;;;;;;6.60;2.70;;;23.50;62.30;;;;;;221341;1262;25228;-47
2022/09/12 08:20:29;;;;;;;6.10;2.50;;;23.50;62.00;;;;;;220822;1265;24962;-49
2022/09/12 08:25:34;;;;;;;4.50;2.50;;;23.50;62.00;;;;;;220810;1265;22529;-48
2022/09/12 08:30:37;;;;;;;4.40;2.20;;;23.50;61.90;;;;;;220920;1265;22588;-49
2022/09/12 08:35:41;;;;;;;3.90;2.50;;;23.50;61.80;;;;;;220850;1265;22545;-51
2022/09/12 08:41:20;;;;;;;7.20;2.30;;;23.60;61.60;;;;;;221154;1265;25197;-48
2022/09/12 08:46:34;;;;;;;5.40;2.00;;;23.60;61.30;;;;;;220661;1268;22693;-50
2022/09/12 08:51:38;;;;;;;3.90;2.20;;;23.40;58.10;;;;;;221084;1264;22623;-49
2022/09/12 08:56:42;;;;;;;4.80;2.50;;;23.30;57.20;;;;;;220815;1265;25302;-49
2022/09/12 09:01:52;;;;;;;4.30;2.20;;;23.30;57.00;;;;;;220820;1265;22648;-48
2022/09/12 09:07:41;;;;;;;5.50;2.30;;;23.50;57.90;;;;;;220640;1265;25403;-49
2022/09/12 09:13:09;;;;;;;3.20;1.90;;;23.50;58.90;;;;;;220990;1265;22616;-48
2022/09/12 09:18:23;;;;;;;5.00;2.50;;;23.50;58.50;;;;;;220991;1265;24296;-47
2022/09/12 09:23:29;;;;;;;4.00;2.40;;;23.50;57.60;;;;;;220986;1265;26464;-48
2022/09/12 09:28:43;;;;;;;6.70;2.60;;;23.50;57.80;;;;;;220837;1265;22563;-46
2022/09/12 09:33:50;;;;;;;3.10;2.00;;;23.50;56.90;;;;;;220833;1265;24209;-48
2022/09/12 09:39:04;;;;;;;3.60;2.10;;;23.50;57.00;;;;;;220831;1265;28475;-46
2022/09/12 09:44:08;;;;;;;4.30;2.20;;;23.50;56.70;;;;;;221021;1265;22521;-50
2022/09/12 09:49:19;;;;;;;4.00;2.40;;;23.50;56.50;;;;;;220679;1265;22541;-47
2022/09/12 09:54:28;;;;;;;4.20;2.10;;;23.60;57.20;;;;;;221184;1265;25231;-48
2022/09/12 09:59:32;;;;;;;3.30;1.90;;;23.60;57.90;;;;;;221252;1265;22534;-51
2022/09/12 10:04:40;;;;;;;5.00;2.30;;;23.60;58.10;;;;;;221330;1265;25300;-46
2022/09/12 10:10:04;;;;;;;3.80;2.10;;;23.60;57.80;;;;;;221117;1265;25239;-47
2022/09/12 10:15:21;;;;;;;5.40;2.40;;;23.60;57.10;;;;;;221085;1265;22643;-48
2022/09/12 10:20:39;;;;;;;5.60;2.30;;;23.60;56.80;;;;;;221006;1265;24422;-48
2022/09/12 10:25:54;;;;;;;3.90;2.10;;;23.60;57.20;;;;;;220993;1265;22693;-47
2022/09/12 10:31:01;;;;;;;4.50;2.20;;;23.70;56.60;;;;;;220793;1265;25232;-48
2022/09/12 10:36:05;;;;;;;4.10;2.00;;;23.60;56.40;;;;;;220804;1265;22524;-48
2022/09/12 10:41:10;;;;;;;4.00;2.10;;;23.70;56.40;;;;;;221025;1265;22737;-47
2022/09/12 10:46:16;;;;;;;4.20;2.30;;;23.70;56.50;;;;;;221010;1265;22592;-46
2022/09/12 10:51:23;;;;;;;4.10;2.00;;;23.70;56.10;;;;;;220903;1265;25237;-49
2022/09/12 10:56:31;;;;;;;3.50;2.20;;;23.80;56.50;;;;;;220909;1265;24303;-53
2022/09/12 11:01:47;;;;;;;3.70;2.00;;;23.90;55.80;;;;;;220948;1265;25579;-50
2022/09/12 11:07:12;;;;;;;3.80;1.80;;;23.90;56.10;;;;;;221107;1265;22537;-48
2022/09/12 11:12:36;;;;;;;3.60;2.00;;;24.00;56.20;;;;;;220870;1265;25352;-47
2022/09/12 11:17:45;;;;;;;2.80;1.80;;;24.00;56.80;;;;;;220971;1265;22556;-49
2022/09/12 11:23:38;;;;;;;4.40;2.20;;;24.00;56.90;;;;;;221087;1265;22538;-46
2022/09/12 11:28:59;;;;;;;3.50;1.80;;;24.00;57.60;;;;;;220708;1265;25286;-46
2022/09/12 11:34:09;;;;;;;3.80;2.20;;;24.10;58.30;;;;;;221095;1264;24408;-48
2022/09/12 11:39:34;;;;;;;2.90;2.00;;;24.10;59.00;;;;;;220912;1265;22551;-47
2022/09/12 11:44:47;;;;;;;3.70;2.10;;;24.10;59.40;;;;;;220880;1265;22679;-47
2022/09/12 11:49:53;;;;;;;2.50;1.70;;;24.10;59.70;;;;;;220948;1265;22779;-48
2022/09/12 11:55:07;;;;;;;3.60;2.00;;;24.20;60.60;;;;;;220890;1265;24219;-48
2022/09/12 12:00:31;;;;;;;3.40;2.00;;;24.20;60.60;;;;;;220591;1265;22551;-47
2022/09/12 12:05:58;;;;;;;3.80;1.90;;;24.30;61.00;;;;;;220900;1265;25353;-48
2022/09/12 12:11:03;;;;;;;4.40;1.90;;;24.30;61.50;;;;;;221035;1265;22614;-47
2022/09/12 12:16:18;;;;;;;4.40;2.20;;;24.30;61.80;;;;;;220951;1265;22676;-45
2022/09/12 12:21:35;;;;;;;5.00;2.20;;;24.30;61.30;;;;;;221074;1265;22564;-54
2022/09/12 12:26:38;;;;;;;6.30;2.60;;;24.30;60.50;;;;;;220883;1265;23065;-45
2022/09/12 12:31:57;;;;;;;3.40;2.20;;;24.30;60.50;;;;;;221050;1265;25300;-47
2022/09/12 12:37:31;;;;;;;4.20;2.10;;;24.30;60.40;;;;;;220828;1264;25464;-45
2022/09/12 12:42:35;;;;;;;3.90;2.20;;;24.30;60.60;;;;;;220911;1265;24277;-46
2022/09/12 12:47:46;;;;;;;5.00;2.10;;;24.30;60.30;;;;;;220444;1265;25540;-46
2022/09/12 12:53:03;;;;;;;5.10;2.00;;;24.20;60.80;;;;;;220946;1265;25216;-48
2022/09/12 12:58:38;;;;;;;3.70;2.20;;;24.20;60.80;;;;;;220895;1265;25392;-51
2022/09/12 13:03:45;;;;;;;7.70;2.60;;;24.10;61.20;;;;;;220425;1265;26264;-49
2022/09/12 13:08:59;;;;;;;4.40;1.90;;;24.10;61.50;;;;;;220723;1266;24077;-46
2022/09/12 13:14:08;;;;;;;4.00;2.10;;;24.10;61.70;;;;;;221496;1265;22705;-47
2022/09/12 13:19:29;;;;;;;5.90;2.00;;;24.00;61.20;;;;;;220646;1267;2861107;-47
2022/09/12 13:24:48;;;;;;;3.40;2.10;;;24.00;61.50;;;;;;220672;1268;24189;-49
2022/09/12 13:30:12;;;;;;;3.50;2.20;;;24.00;61.10;;;;;;220797;1265;22665;-47
2022/09/12 13:35:39;;;;;;;3.30;2.20;;;24.00;60.90;;;;;;220445;1265;22551;-46
2022/09/12 13:41:17;;;;;;;5.10;1.80;;;24.00;60.70;;;;;;220649;1265;24415;-47
2022/09/12 13:46:32;;;;;;;3.20;2.40;;;24.00;61.70;;;;;;220694;1265;25387;-47
2022/09/12 13:51:35;;;;;;;3.30;2.30;;;24.00;60.20;;;;;;220744;1265;25385;-48
2022/09/12 13:56:51;;;;;;;4.00;2.20;;;24.00;60.10;;;;;;220737;1265;22543;-45
2022/09/12 14:01:55;;;;;;;6.20;2.20;;;24.00;60.80;;;;;;220370;1265;25207;-52
2022/09/12 14:07:10;;;;;;;3.70;2.20;;;24.00;61.00;;;;;;220494;1265;25239;-50
2022/09/12 14:12:24;;;;;;;5.10;2.10;;;24.00;60.80;;;;;;220832;1265;22728;-48
2022/09/12 14:17:34;;;;;;;4.10;1.90;;;24.00;60.80;;;;;;221339;1265;22682;-46
2022/09/12 14:22:41;;;;;;;3.00;2.10;;;24.00;60.70;;;;;;220607;1265;25353;-46
2022/09/12 14:27:55;;;;;;;3.60;1.90;;;23.90;61.10;;;;;;220597;1265;22553;-49
2022/09/12 14:33:21;;;;;;;9.20;2.40;;;24.00;60.60;;;;;;220977;1265;23317;-50
2022/09/12 14:38:33;;;;;;;7.90;2.50;;;24.00;61.10;;;;;;220407;1265;24020;-47
2022/09/12 14:43:42;;;;;;;4.90;2.30;;;24.00;60.50;;;;;;220702;1265;25232;-51
2022/09/12 14:48:52;;;;;;;5.10;2.90;;;24.00;60.90;;;;;;221134;1265;22531;-47
2022/09/12 14:53:57;;;;;;;7.10;2.70;;;24.00;61.70;;;;;;220985;1265;22683;-47
2022/09/12 14:59:26;;;;;;;7.60;2.70;;;24.00;61.40;;;;;;220886;1264;22868;-48
2022/09/12 15:04:47;;;;;;;5.00;2.50;;;23.90;59.50;;;;;;220893;1265;24346;-50
2022/09/12 15:09:51;;;;;;;5.90;2.30;;;23.80;58.80;;;;;;220840;1265;22550;-46
2022/09/12 15:15:17;;;;;;;4.20;2.70;;;23.80;58.80;;;;;;221101;1265;25429;-50
2022/09/12 15:20:21;;;;;;;7.30;3.30;;;23.70;58.70;;;;;;220987;1265;22583;-48
2022/09/12 15:25:27;;;;;;;11.30;2.90;;;23.50;58.60;;;;;;220731;1265;23207;-48
2022/09/12 15:30:35;;;;;;;4.90;2.60;;;23.20;58.70;;;;;;220754;1268;22701;-47
2022/09/12 15:35:40;;;;;;;4.90;2.70;;;23.00;59.10;;;;;;220612;1265;22741;-54
2022/09/12 15:40:51;;;;;;;7.40;2.80;;;22.80;60.00;;;;;;220425;1264;22662;-51
2022/09/12 15:45:55;;;;;;;7.40;2.70;;;22.80;60.70;;;;;;220804;1265;22544;-48
2022/09/12 15:51:03;;;;;;;9.20;2.50;;;22.60;61.10;;;;;;221035;1265;25482;-48
2022/09/12 15:56:14;;;;;;;8.30;3.20;;;22.50;61.50;;;;;;220661;1265;22569;-48
2022/09/12 16:01:18;;;;;;;7.90;3.10;;;22.80;61.30;;;;;;221015;1265;24405;-48
2022/09/12 16:06:22;;;;;;;4.20;2.60;;;22.80;61.40;;;;;;220798;1265;25897;-50
2022/09/12 16:11:35;;;;;;;3.70;2.30;;;22.90;61.40;;;;;;220640;1265;23556;-50
2022/09/12 16:16:50;;;;;;;8.50;2.60;;;22.90;61.50;;;;;;220755;1265;25482;-47
2022/09/12 16:21:54;;;;;;;4.10;2.60;;;22.80;61.70;;;;;;221142;1265;22639;-49
2022/09/12 16:26:58;;;;;;;7.80;2.60;;;22.60;62.10;;;;;;220783;1265;22607;-59
2022/09/12 16:32:04;;;;;;;9.20;2.50;;;22.10;63.50;;;;;;220799;1266;22601;-56
2022/09/12 16:37:18;;;;;;;6.30;2.70;;;21.80;64.00;;;;;;220472;1265;22561;-60
2022/09/12 16:42:32;;;;;;;24.40;3.10;;;21.70;64.00;;;;;;220693;1265;26229;-53
2022/09/12 16:47:36;;;;;;;5.60;2.60;;;21.80;64.30;;;;;;220617;1265;25441;-51
2022/09/12 16:52:41;;;;;;;11.00;3.30;;;21.90;63.80;;;;;;220857;1268;22525;-56
2022/09/12 16:58:02;;;;;;;4.80;2.60;;;21.90;63.30;;;;;;220660;1266;22554;-51
2022/09/12 17:03:10;;;;;;;7.90;3.80;;;21.80;63.50;;;;;;220804;1265;24221;-53
2022/09/12 17:08:40;;;;;;;10.30;3.00;;;21.80;63.70;;;;;;220806;1265;22697;-55
2022/09/12 17:13:53;;;;;;;7.50;2.80;;;21.80;64.00;;;;;;220750;1265;22934;-54
2022/09/12 17:19:19;;;;;;;6.50;2.70;;;21.80;63.80;;;;;;220756;1265;24390;-48
2022/09/12 17:24:24;;;;;;;6.20;2.90;;;22.10;64.10;;;;;;220929;1268;24214;-49
2022/09/12 17:29:33;;;;;;;10.90;2.50;;;22.70;62.60;;;;;;221156;1265;24093;-48
2022/09/12 17:34:37;;;;;;;9.90;2.90;;;22.80;62.50;;;;;;220605;1265;22804;-50
2022/09/12 17:39:41;;;;;;;8.10;2.60;;;22.80;62.20;;;;;;220857;1265;24214;-50
2022/09/12 17:44:46;;;;;;;10.40;2.80;;;22.90;63.00;;;;;;220765;1265;25311;-51
2022/09/12 17:50:01;;;;;;;7.60;2.70;;;22.90;62.60;;;;;;220566;1265;22697;-47
2022/09/12 17:55:40;;;;;;;32.50;4.20;;;23.00;63.10;;;;;;220712;1268;25434;-49
2022/09/12 18:06:47;;;;;;;9.20;3.20;;;23.10;66.20;;;;;;220682;1265;23021;-49
2022/09/12 18:11:57;;;;;;;7.20;3.10;;;23.20;66.70;;;;;;220858;1265;25447;-49
2022/09/12 18:17:07;;;;;;;13.90;3.10;;;23.20;66.50;;;;;;220493;1265;24079;-47
2022/09/12 18:22:27;;;;;;;11.50;3.40;;;23.20;65.90;;;;;;220847;1267;22529;-47
2022/09/12 18:27:36;;;;;;;14.30;3.40;;;23.20;65.90;;;;;;221030;1265;26472;-47
2022/09/12 18:32:40;;;;;;;10.00;3.80;;;23.20;66.10;;;;;;220849;1265;25280;-52
2022/09/12 18:37:45;;;;;;;7.80;2.80;;;23.20;65.20;;;;;;220506;1268;22526;-49
2022/09/12 18:42:57;;;;;;;6.90;2.90;;;23.20;65.20;;;;;;220456;1265;22567;-51
2022/09/12 18:48:04;;;;;;;6.10;3.20;;;23.20;65.00;;;;;;220620;1265;25314;-50
2022/09/12 18:53:17;;;;;;;10.30;3.00;;;23.20;65.00;;;;;;220841;1265;22550;-50
2022/09/12 18:58:32;;;;;;;5.40;3.10;;;23.20;64.40;;;;;;220780;1265;24208;-46
2022/09/12 19:04:00;;;;;;;5.00;2.50;;;23.20;64.30;;;;;;220523;1265;23187;-51
2022/09/12 19:09:49;;;;;;;7.90;2.80;;;23.20;64.00;;;;;;220622;1265;27954;-49
2022/09/12 19:15:51;;;;;;;6.70;2.80;;;23.20;64.20;;;;;;220599;1265;22546;-48
2022/09/12 19:21:21;;;;;;;10.50;2.50;;;23.20;64.90;;;;;;220992;1265;22519;-52
2022/09/12 19:26:46;;;;;;;8.40;2.90;;;23.20;66.00;;;;;;220798;1265;24139;-49
2022/09/12 19:32:01;;;;;;;19.40;2.70;;;23.20;65.60;;;;;;220543;1265;24359;-49
2022/09/12 19:37:04;;;;;;;6.00;2.90;;;23.20;65.50;;;;;;220845;1265;24237;-49
2022/09/12 19:42:08;;;;;;;9.80;3.20;;;23.20;65.30;;;;;;220922;1265;22585;-48
2022/09/12 19:47:14;;;;;;;5.60;2.90;;;23.20;66.30;;;;;;220993;1265;24236;-48
2022/09/12 19:52:21;;;;;;;7.70;3.50;;;23.20;66.50;;;;;;220675;1268;25235;-48
2022/09/12 19:57:31;;;;;;;10.10;2.80;;;23.20;66.70;;;;;;221070;1265;23160;-51
2022/09/12 20:02:35;;;;;;;5.50;2.60;;;23.20;66.10;;;;;;220749;1265;24315;-47
2022/09/12 20:07:39;;;;;;;11.00;3.20;;;23.20;65.90;;;;;;221172;1265;24264;-48
2022/09/12 20:12:59;;;;;;;9.30;3.60;;;23.20;67.10;;;;;;221210;1265;25420;-47
2022/09/12 20:18:10;;;;;;;8.80;2.80;;;23.30;68.90;;;;;;220983;1265;24276;-49
2022/09/12 20:23:25;;;;;;;8.40;3.50;;;23.30;68.40;;;;;;220641;1265;24418;-48
2022/09/12 20:28:46;;;;;;;8.10;3.00;;;23.30;68.20;;;;;;220677;1265;24322;-49
2022/09/12 20:34:22;;;;;;;7.10;3.60;;;23.30;68.40;;;;;;220779;1265;23879;-52
2022/09/12 20:39:27;;;;;;;10.30;3.30;;;23.30;68.70;;;;;;220594;1265;22543;-49
2022/09/12 20:44:42;;;;;;;9.30;3.70;;;23.30;68.00;;;;;;220561;1268;22567;-50
2022/09/12 20:49:59;;;;;;;6.20;3.10;;;23.30;68.40;;;;;;220473;1265;22561;-49
2022/09/12 20:55:09;;;;;;;5.10;2.80;;;23.30;68.30;;;;;;220622;1265;23940;-53
2022/09/12 21:00:15;;;;;;;6.30;3.10;;;23.30;68.40;;;;;;220735;1265;22559;-48
2022/09/12 21:05:24;;;;;;;8.20;3.20;;;23.30;68.00;;;;;;220539;1265;22540;-47
2022/09/12 21:10:34;;;;;;;6.20;3.10;;;23.30;68.10;;;;;;220863;1265;24276;-49
2022/09/12 21:15:41;;;;;;;6.00;3.30;;;23.30;68.00;;;;;;220611;1265;24097;-48
2022/09/12 21:20:51;;;;;;;6.00;2.80;;;23.30;68.00;;;;;;220815;1265;24305;-51
2022/09/12 21:26:00;;;;;;;8.60;3.20;;;23.30;68.00;;;;;;220938;1265;22659;-52
2022/09/12 21:31:08;;;;;;;5.20;2.90;;;23.30;68.20;;;;;;220801;1265;22782;-47
2022/09/12 21:36:18;;;;;;;6.40;3.20;;;23.20;68.30;;;;;;220713;1265;24533;-48
2022/09/12 21:41:22;;;;;;;8.80;3.10;;;23.20;68.40;;;;;;220543;1265;24322;-48
2022/09/12 21:46:30;;;;;;;8.70;3.50;;;23.10;67.10;;;;;;221311;1265;25442;-48
2022/09/12 21:51:34;;;;;;;5.70;3.30;;;23.10;67.10;;;;;;220860;1265;25370;-48
2022/09/12 21:56:38;;;;;;;5.10;3.30;;;23.10;68.10;;;;;;221181;1265;24309;-48
2022/09/12 22:01:44;;;;;;;6.00;3.70;;;23.10;68.30;;;;;;221090;1264;22615;-47
2022/09/12 22:06:50;;;;;;;9.50;3.10;;;23.10;67.30;;;;;;221296;1265;22547;-46
2022/09/12 22:11:56;;;;;;;9.00;3.30;;;23.10;67.80;;;;;;221177;1265;24211;-49
2022/09/12 22:17:05;;;;;;;6.70;2.90;;;23.00;67.30;;;;;;220908;1265;22532;-48
2022/09/12 22:27:34;;;;;;;5.20;3.00;;;23.00;67.30;;;;;;220804;1264;24347;-49
2022/09/12 22:32:41;;;;;;;6.40;3.00;;;22.90;67.70;;;;;;220808;1265;22557;-48
2022/09/12 22:37:48;;;;;;;9.00;3.30;;;23.00;67.30;;;;;;220389;1265;26672;-46
2022/09/12 22:42:53;;;;;;;7.30;3.10;;;23.00;68.50;;;;;;221173;1265;25250;-49
2022/09/12 22:47:56;;;;;;;6.30;3.10;;;23.00;67.30;;;;;;220978;1268;22796;-48
2022/09/12 22:53:04;;;;;;;5.00;3.20;;;22.90;68.10;;;;;;220679;1264;23108;-45
2022/09/12 22:58:07;;;;;;;5.40;3.10;;;22.90;67.40;;;;;;220289;1265;25307;-48
2022/09/12 23:03:11;;;;;;;5.20;2.60;;;22.90;67.90;;;;;;220765;1268;22830;-47
2022/09/12 23:08:16;;;;;;;5.50;3.20;;;22.90;67.30;;;;;;220733;1265;24478;-47
2022/09/12 23:13:21;;;;;;;4.50;2.50;;;22.90;67.70;;;;;;220603;1268;25286;-48
2022/09/12 23:18:28;;;;;;;4.30;2.80;;;22.90;67.70;;;;;;220955;1265;24191;-48
2022/09/12 23:23:34;;;;;;;4.10;2.50;;;22.90;67.40;;;;;;220937;1265;22569;-47
2022/09/12 23:28:39;;;;;;;4.90;2.90;;;22.90;67.50;;;;;;220890;1265;22528;-49
2022/09/12 23:33:43;;;;;;;5.00;2.90;;;22.90;67.70;;;;;;221034;1265;25485;-47
2022/09/12 23:38:47;;;;;;;4.90;2.80;;;22.90;67.50;;;;;;221027;1265;25513;-47
2022/09/12 23:43:54;;;;;;;4.80;3.00;;;22.90;67.80;;;;;;220941;1265;24210;-47
2022/09/12 23:49:02;;;;;;;4.10;2.40;;;22.90;67.60;;;;;;220960;1265;25455;-45
2022/09/12 23:54:09;;;;;;;5.10;2.60;;;22.80;67.70;;;;;;221278;1265;22532;-47
2022/09/12 23:59:15;;;;;;;4.20;2.70;;;22.80;67.80;;;;;;220954;1265;22522;-48
